Time;durP1;ratioP1;P1;durP2;ratioP2;P2;SDS_P1;SDS_P2;PMS_P1;PMS_P2;Temp;Humidity;BMP_temperature;BMP_pressure;BME280_temperature;BME280_humidity;BME280_pressure;Samples;Min_cycle;Max_cycle;Signal;HPM_P1;HPM_P2
2022/03/27 00:01:32;;;;;;;20.98;11.40;;;11.50;74.50;;;;;;5055217;28;20037;-47
2022/03/27 00:03:58;;;;;;;24.65;11.18;;;11.50;74.30;;;;;;5062686;28;20052;-48
2022/03/27 00:06:24;;;;;;;17.10;9.82;;;11.50;74.20;;;;;;5076734;28;20082;-47
2022/03/27 00:08:50;;;;;;;21.13;11.18;;;11.50;74.10;;;;;;5075065;28;20123;-47
2022/03/27 00:11:25;;;;;;;21.13;12.98;;;11.30;75.60;;;;;;5076415;28;20081;-47
2022/03/27 00:13:54;;;;;;;21.27;12.80;;;11.20;76.50;;;;;;5074787;28;20048;-49
2022/03/27 00:16:21;;;;;;;17.15;9.90;;;11.10;76.40;;;;;;5076304;28;20107;-47
2022/03/27 00:18:47;;;;;;;18.30;9.02;;;11.20;75.30;;;;;;5076888;28;20077;-47
2022/03/27 00:21:13;;;;;;;21.48;11.13;;;11.20;74.70;;;;;;5076004;28;20041;-48
2022/03/27 00:23:40;;;;;;;18.45;10.25;;;11.30;74.80;;;;;;5076610;28;20048;-50
2022/03/27 00:26:07;;;;;;;16.02;10.30;;;11.30;74.70;;;;;;5076271;28;20032;-49
2022/03/27 00:28:33;;;;;;;15.73;10.32;;;11.30;75.00;;;;;;5076678;28;20375;-47
2022/03/27 00:31:04;;;;;;;19.98;12.80;;;11.20;74.80;;;;;;5091657;28;20115;-49
2022/03/27 00:33:31;;;;;;;13.07;8.45;;;11.20;75.20;;;;;;5076956;28;20123;-49
2022/03/27 00:35:58;;;;;;;11.98;8.43;;;11.20;74.70;;;;;;5076550;28;20042;-50
2022/03/27 00:38:25;;;;;;;12.85;8.18;;;11.30;74.50;;;;;;5076013;28;20028;-49
2022/03/27 00:40:52;;;;;;;16.83;9.27;;;11.20;74.50;;;;;;5075801;28;20032;-48
2022/03/27 00:43:19;;;;;;;13.02;8.18;;;11.20;74.70;;;;;;5073656;28;20075;-50
2022/03/27 00:45:46;;;;;;;13.70;7.53;;;11.10;74.90;;;;;;5091389;28;20041;-50
2022/03/27 00:48:14;;;;;;;14.45;8.25;;;11.10;74.80;;;;;;5075066;28;20033;-48
2022/03/27 00:50:40;;;;;;;14.25;7.82;;;11.00;74.80;;;;;;5039901;28;20033;-48
2022/03/27 00:53:06;;;;;;;12.80;8.30;;;10.90;75.00;;;;;;5073348;28;20549;-48
2022/03/27 00:55:32;;;;;;;13.45;8.18;;;10.90;75.30;;;;;;5073124;28;20037;-48
2022/03/27 00:57:58;;;;;;;17.58;8.35;;;10.90;75.30;;;;;;5073459;28;20079;-48
2022/03/27 01:00:39;;;;;;;12.27;7.80;;;10.80;75.30;;;;;;5073662;28;20064;-48
2022/03/27 01:03:16;;;;;;;13.73;8.38;;;10.90;75.40;;;;;;5073739;28;20040;-49
2022/03/27 01:05:43;;;;;;;14.60;8.38;;;10.90;75.60;;;;;;5023526;28;20124;-48
2022/03/27 01:08:12;;;;;;;14.75;8.13;;;10.90;75.60;;;;;;5073189;28;20384;-48
2022/03/27 01:10:39;;;;;;;11.95;7.70;;;10.90;75.70;;;;;;5073468;28;20052;-48
2022/03/27 01:13:12;;;;;;;16.38;9.05;;;10.80;75.70;;;;;;5073431;28;20036;-47
2022/03/27 01:15:37;;;;;;;13.90;8.88;;;10.80;75.80;;;;;;5073457;28;20050;-47
2022/03/27 01:18:05;;;;;;;13.57;8.23;;;10.70;76.00;;;;;;5073204;28;20096;-48
2022/03/27 01:20:40;;;;;;;12.77;8.30;;;10.70;76.10;;;;;;5039817;28;20035;-48
2022/03/27 01:23:11;;;;;;;12.82;7.28;;;10.70;76.10;;;;;;5074944;28;20116;-48
2022/03/27 01:25:38;;;;;;;17.13;8.48;;;10.60;76.30;;;;;;5073539;28;20036;-48
2022/03/27 01:28:05;;;;;;;12.38;7.55;;;10.60;76.50;;;;;;5075090;28;20097;-47
2022/03/27 01:30:32;;;;;;;13.15;7.55;;;10.50;76.70;;;;;;5075408;28;20028;-47
2022/03/27 01:32:58;;;;;;;11.32;7.60;;;10.50;76.50;;;;;;5074992;28;20480;-48
2022/03/27 01:35:24;;;;;;;14.82;8.35;;;10.60;76.40;;;;;;5075149;28;20052;-47
2022/03/27 01:37:50;;;;;;;15.30;8.68;;;10.70;76.30;;;;;;5075090;28;20031;-48
2022/03/27 01:40:20;;;;;;;16.33;8.60;;;10.80;76.10;;;;;;5075134;28;20029;-48
2022/03/27 01:42:46;;;;;;;13.45;8.32;;;10.90;76.10;;;;;;5089683;28;20105;-48
2022/03/27 01:45:12;;;;;;;15.90;9.75;;;10.90;75.90;;;;;;5075027;28;20434;-48
2022/03/27 01:47:38;;;;;;;14.77;10.30;;;10.00;78.60;;;;;;5074981;28;20100;-48
2022/03/27 01:50:07;;;;;;;18.10;10.63;;;9.70;79.80;;;;;;5074957;28;20025;-48
2022/03/27 01:52:34;;;;;;;26.48;12.80;;;9.40;81.00;;;;;;5074795;28;20025;-49
2022/03/27 01:55:00;;;;;;;19.85;12.60;;;9.30;81.50;;;;;;5074883;28;20028;-49
2022/03/27 01:57:26;;;;;;;16.45;11.15;;;9.30;81.30;;;;;;5089656;28;20094;-49
2022/03/27 01:59:52;;;;;;;18.02;12.32;;;9.10;81.90;;;;;;5089893;28;20040;-48
2022/03/27 02:02:23;;;;;;;21.15;12.23;;;9.00;82.30;;;;;;5074452;28;20051;-49
2022/03/27 02:04:53;;;;;;;21.47;12.60;;;8.90;82.90;;;;;;5074518;28;20116;-49
2022/03/27 02:07:22;;;;;;;20.38;12.63;;;9.20;82.20;;;;;;5089579;28;20043;-49
2022/03/27 02:09:51;;;;;;;22.60;13.05;;;9.40;81.40;;;;;;5074896;28;20040;-49
2022/03/27 02:12:17;;;;;;;32.63;13.18;;;9.40;81.70;;;;;;5074766;28;20032;-49
2022/03/27 02:14:43;;;;;;;21.50;12.40;;;9.30;82.10;;;;;;5089504;28;20044;-49
2022/03/27 02:17:10;;;;;;;18.77;12.80;;;9.30;82.30;;;;;;5089341;28;20045;-48
2022/03/27 02:19:36;;;;;;;24.00;12.98;;;9.50;81.70;;;;;;5074228;28;20063;-49
2022/03/27 02:22:02;;;;;;;19.98;12.85;;;9.60;81.40;;;;;;5072187;28;20084;-48
2022/03/27 02:24:28;;;;;;;22.60;12.73;;;9.60;81.60;;;;;;5073938;28;20028;-48
2022/03/27 02:26:55;;;;;;;18.05;12.52;;;9.60;81.40;;;;;;5089180;28;20093;-48
2022/03/27 02:29:21;;;;;;;22.02;12.25;;;9.60;81.20;;;;;;5074125;28;20105;-48
2022/03/27 02:31:47;;;;;;;19.08;12.75;;;9.80;81.10;;;;;;5088889;28;20094;-48
2022/03/27 02:34:13;;;;;;;25.00;13.70;;;9.80;80.90;;;;;;5074010;28;20470;-49
2022/03/27 02:36:39;;;;;;;21.00;11.98;;;9.90;80.50;;;;;;5073744;28;20025;-49
2022/03/27 02:39:05;;;;;;;17.48;12.45;;;9.90;80.50;;;;;;5073771;28;20025;-49
2022/03/27 02:41:31;;;;;;;21.10;12.40;;;9.80;80.60;;;;;;5073873;28;20491;-49
2022/03/27 02:43:56;;;;;;;18.08;12.93;;;9.90;80.80;;;;;;5038663;28;20120;-48
2022/03/27 02:46:22;;;;;;;21.02;12.88;;;9.70;81.40;;;;;;5073834;28;20036;-48
2022/03/27 02:48:48;;;;;;;21.52;13.07;;;9.60;81.40;;;;;;5073786;28;20024;-49
2022/03/27 02:51:14;;;;;;;15.55;11.07;;;9.70;81.60;;;;;;5071807;28;20036;-49
2022/03/27 02:53:40;;;;;;;21.38;11.98;;;9.60;81.80;;;;;;5073864;28;20032;-48
2022/03/27 02:56:07;;;;;;;17.48;12.68;;;9.50;82.20;;;;;;5071654;28;20037;-49
2022/03/27 02:58:34;;;;;;;24.73;13.30;;;9.50;82.80;;;;;;5073494;28;20029;-49
2022/03/27 03:01:00;;;;;;;17.65;12.40;;;9.50;82.90;;;;;;5073571;28;20029;-49
2022/03/27 03:03:26;;;;;;;22.42;12.68;;;9.50;82.80;;;;;;5088523;28;20076;-49
2022/03/27 03:05:52;;;;;;;20.20;12.27;;;9.60;82.90;;;;;;5073271;28;20031;-49
2022/03/27 03:08:18;;;;;;;19.50;13.13;;;9.60;83.60;;;;;;5073567;28;20078;-48
2022/03/27 03:10:45;;;;;;;20.98;12.85;;;9.60;83.00;;;;;;5073288;28;20103;-49
2022/03/27 03:13:11;;;;;;;21.90;12.73;;;9.60;83.10;;;;;;5073322;28;20032;-49
2022/03/27 03:15:38;;;;;;;19.52;11.45;;;9.60;83.00;;;;;;5073503;28;20035;-48
2022/03/27 03:18:05;;;;;;;15.23;10.32;;;9.60;82.90;;;;;;5073244;28;20388;-48
2022/03/27 03:20:32;;;;;;;21.88;10.43;;;9.70;82.60;;;;;;5070982;28;20468;-48
2022/03/27 03:22:58;;;;;;;12.05;8.48;;;9.70;82.00;;;;;;5037448;28;20049;-49
2022/03/27 03:25:24;;;;;;;12.93;8.38;;;9.70;81.30;;;;;;5071201;28;20044;-48
2022/03/27 03:27:50;;;;;;;16.42;9.13;;;9.80;81.00;;;;;;5071118;28;20029;-49
2022/03/27 03:30:19;;;;;;;13.60;8.73;;;9.90;80.90;;;;;;5071288;28;20040;-49
2022/03/27 03:32:45;;;;;;;12.77;8.25;;;10.00;80.60;;;;;;5071003;28;20147;-48
2022/03/27 03:35:11;;;;;;;13.20;7.75;;;10.10;80.30;;;;;;5054390;28;20087;-48
2022/03/27 03:37:37;;;;;;;12.55;8.10;;;10.10;79.80;;;;;;5070980;28;20041;-48
2022/03/27 03:40:08;;;;;;;10.98;7.32;;;10.10;79.80;;;;;;5037465;28;20045;-49
2022/03/27 03:42:35;;;;;;;13.30;8.80;;;10.10;79.40;;;;;;5038393;28;20416;-49
2022/03/27 03:45:00;;;;;;;12.50;7.57;;;10.10;79.40;;;;;;5070847;28;20028;-48
2022/03/27 03:47:26;;;;;;;12.70;8.43;;;9.90;79.40;;;;;;5070803;28;20089;-48
2022/03/27 03:49:52;;;;;;;14.35;8.25;;;10.00;79.60;;;;;;5070793;28;20058;-49
2022/03/27 03:52:18;;;;;;;11.98;7.50;;;10.10;79.40;;;;;;5037532;28;20052;-47
2022/03/27 03:54:44;;;;;;;12.98;7.75;;;9.90;79.70;;;;;;5072636;28;20032;-48
2022/03/27 03:57:10;;;;;;;12.55;8.25;;;9.90;80.10;;;;;;5073071;28;20486;-48
2022/03/27 03:59:36;;;;;;;15.05;8.05;;;9.80;80.30;;;;;;5088015;28;20086;-48
2022/03/27 04:02:07;;;;;;;25.77;8.43;;;9.60;80.60;;;;;;5073092;28;20025;-48
2022/03/27 04:04:34;;;;;;;19.40;8.32;;;9.80;80.10;;;;;;5073028;28;20098;-48
2022/03/27 04:07:01;;;;;;;17.05;7.78;;;9.90;79.90;;;;;;5087884;28;20032;-48
2022/03/27 04:09:28;;;;;;;14.05;7.20;;;10.00;79.60;;;;;;5072822;28;20028;-48
2022/03/27 04:11:54;;;;;;;10.95;7.03;;;10.00;79.30;;;;;;5072648;28;20021;-48
2022/03/27 04:14:20;;;;;;;13.80;7.60;;;10.00;79.30;;;;;;5087865;28;20048;-49
2022/03/27 04:16:46;;;;;;;12.70;7.28;;;9.90;79.50;;;;;;5071127;28;20519;-49
2022/03/27 04:19:12;;;;;;;14.20;8.13;;;10.00;79.40;;;;;;5070934;28;20080;-48
2022/03/27 04:21:39;;;;;;;13.25;8.55;;;10.10;79.40;;;;;;5070163;28;20087;-48
2022/03/27 04:24:06;;;;;;;11.75;7.15;;;10.10;79.10;;;;;;5037276;28;20048;-48
2022/03/27 04:26:33;;;;;;;10.35;7.18;;;9.80;79.40;;;;;;5070771;28;20037;-48
2022/03/27 04:29:00;;;;;;;11.75;8.50;;;9.80;80.00;;;;;;5067713;28;20404;-49
2022/03/27 04:31:25;;;;;;;11.10;8.07;;;9.50;80.60;;;;;;5038275;28;20059;-48
2022/03/27 04:33:51;;;;;;;14.43;7.22;;;9.40;81.20;;;;;;5074041;28;20476;-48
2022/03/27 04:36:17;;;;;;;14.73;8.18;;;9.20;81.50;;;;;;5073982;28;20032;-48
2022/03/27 04:38:43;;;;;;;15.13;7.88;;;9.00;82.00;;;;;;5040580;28;20047;-48
2022/03/27 04:41:08;;;;;;;17.00;8.50;;;8.90;82.20;;;;;;5040504;28;20090;-48
2022/03/27 04:43:34;;;;;;;14.40;8.00;;;9.00;82.50;;;;;;5074159;28;20021;-48
2022/03/27 04:46:00;;;;;;;16.25;8.57;;;9.00;82.30;;;;;;5072785;28;20086;-49
2022/03/27 04:48:26;;;;;;;15.88;8.57;;;9.10;82.50;;;;;;5073854;28;20575;-48
2022/03/27 04:50:53;;;;;;;12.27;8.90;;;9.40;82.10;;;;;;5040605;28;20040;-48
2022/03/27 04:53:19;;;;;;;22.85;10.57;;;9.50;81.50;;;;;;5075249;28;20507;-48
2022/03/27 04:55:45;;;;;;;19.02;9.57;;;9.70;81.20;;;;;;5073926;28;20041;-48
2022/03/27 04:58:11;;;;;;;15.93;9.55;;;9.80;80.80;;;;;;5053481;28;20029;-47
2022/03/27 05:00:38;;;;;;;15.45;8.85;;;10.00;80.40;;;;;;5055900;28;20196;-49
2022/03/27 05:03:05;;;;;;;17.50;9.38;;;10.00;80.30;;;;;;5053917;28;20086;-49
2022/03/27 05:05:30;;;;;;;18.08;9.43;;;10.10;80.40;;;;;;5058614;28;20033;-49
2022/03/27 05:07:58;;;;;;;19.73;9.45;;;10.00;80.30;;;;;;5069792;28;20041;-48
2022/03/27 05:10:24;;;;;;;15.02;9.52;;;9.90;80.60;;;;;;5074696;28;20040;-49
2022/03/27 05:12:50;;;;;;;22.73;14.35;;;10.00;80.80;;;;;;5075523;28;20029;-48
2022/03/27 05:15:16;;;;;;;17.42;10.48;;;10.00;80.50;;;;;;5022920;28;20036;-49
2022/03/27 05:17:55;;;;;;;16.80;9.15;;;10.00;80.70;;;;;;5070667;28;20032;-48
2022/03/27 05:20:22;;;;;;;12.30;8.35;;;10.20;80.80;;;;;;5075328;28;20028;-48
2022/03/27 05:22:48;;;;;;;19.42;9.77;;;10.30;80.70;;;;;;5075384;28;20052;-48
2022/03/27 05:25:15;;;;;;;15.30;9.10;;;10.20;80.40;;;;;;5075167;28;20037;-49
2022/03/27 05:27:46;;;;;;;14.50;8.82;;;10.50;80.70;;;;;;5056765;28;20043;-48
2022/03/27 05:30:14;;;;;;;11.93;8.60;;;10.60;80.50;;;;;;5073292;28;20075;-48
2022/03/27 05:32:40;;;;;;;15.88;9.90;;;10.70;80.60;;;;;;5075398;28;20047;-48
2022/03/27 05:35:07;;;;;;;17.58;9.35;;;10.80;80.50;;;;;;5074334;28;20025;-48
2022/03/27 05:37:38;;;;;;;13.38;8.60;;;10.90;80.10;;;;;;5090074;28;20480;-48
2022/03/27 05:40:05;;;;;;;16.25;10.15;;;11.00;80.10;;;;;;5075088;28;20451;-48
2022/03/27 05:42:31;;;;;;;19.65;11.27;;;11.00;80.90;;;;;;5072777;28;20043;-48
2022/03/27 05:44:57;;;;;;;16.25;9.15;;;11.20;81.20;;;;;;5075133;28;20021;-48
2022/03/27 05:47:22;;;;;;;21.23;9.80;;;11.30;81.30;;;;;;5070450;28;20551;-48
2022/03/27 05:49:48;;;;;;;14.95;9.93;;;11.40;81.40;;;;;;5074765;28;20479;-48
2022/03/27 05:52:16;;;;;;;19.63;10.20;;;11.50;80.70;;;;;;5074616;28;20406;-50
2022/03/27 05:54:42;;;;;;;16.83;10.43;;;11.40;80.40;;;;;;5074815;28;20028;-48
2022/03/27 05:57:08;;;;;;;15.15;10.38;;;11.40;80.10;;;;;;5074818;28;20032;-47
2022/03/27 05:59:34;;;;;;;16.67;10.18;;;11.30;79.80;;;;;;5089635;28;20392;-48
2022/03/27 06:02:00;;;;;;;15.40;10.27;;;11.30;79.80;;;;;;5072820;28;20036;-48
2022/03/27 06:04:26;;;;;;;15.60;11.30;;;11.40;80.60;;;;;;5073765;28;20024;-48
2022/03/27 06:06:52;;;;;;;16.67;11.50;;;11.50;80.80;;;;;;5038440;28;20044;-48
2022/03/27 06:09:18;;;;;;;19.33;11.10;;;11.50;81.00;;;;;;5038644;28;20123;-49
2022/03/27 06:11:44;;;;;;;17.77;10.93;;;11.60;80.70;;;;;;5074256;28;20020;-48
2022/03/27 06:14:10;;;;;;;18.45;10.80;;;11.70;81.90;;;;;;5074479;28;20029;-48
2022/03/27 06:16:37;;;;;;;16.40;11.27;;;11.80;81.90;;;;;;5072700;28;20028;-49
2022/03/27 06:19:02;;;;;;;21.13;10.38;;;11.90;81.90;;;;;;5069632;28;20024;-48
2022/03/27 06:21:29;;;;;;;16.77;11.48;;;12.00;81.50;;;;;;5072469;28;20112;-49
2022/03/27 06:23:55;;;;;;;17.20;10.70;;;12.10;81.90;;;;;;5055381;28;20035;-48
2022/03/27 06:26:21;;;;;;;15.52;10.75;;;12.20;81.80;;;;;;5074511;28;20025;-48
2022/03/27 06:28:47;;;;;;;24.98;16.75;;;12.30;82.40;;;;;;5072053;28;20037;-49
2022/03/27 06:31:13;;;;;;;20.58;12.48;;;12.40;83.00;;;;;;5074199;28;20027;-49
2022/03/27 06:33:39;;;;;;;16.95;12.18;;;12.30;83.30;;;;;;5073725;28;20039;-48
2022/03/27 06:36:05;;;;;;;19.92;13.52;;;12.50;82.50;;;;;;5073870;28;20121;-48
2022/03/27 06:38:31;;;;;;;19.42;13.40;;;12.60;82.60;;;;;;5073870;28;20464;-48
2022/03/27 06:40:57;;;;;;;20.27;13.50;;;12.80;83.10;;;;;;5073144;28;20060;-49
2022/03/27 06:43:23;;;;;;;22.88;13.43;;;13.00;82.50;;;;;;5073370;28;20029;-48
2022/03/27 06:45:51;;;;;;;20.58;13.57;;;13.20;82.10;;;;;;5072890;28;20020;-48
2022/03/27 06:48:17;;;;;;;20.35;13.75;;;13.50;85.80;;;;;;5038307;28;20041;-49
2022/03/27 06:50:44;;;;;;;24.23;14.52;;;13.70;81.80;;;;;;5073526;28;20055;-48
2022/03/27 06:53:11;;;;;;;22.08;16.05;;;;;;;;;;5071679;28;20483;-48
2022/03/27 06:55:37;;;;;;;26.13;16.83;;;14.40;93.80;;;;;;5072954;28;20391;-48
2022/03/27 06:58:03;;;;;;;22.55;14.25;;;;;;;;;;5073538;28;20028;-48
2022/03/27 07:03:14;;;;;;;21.35;14.85;;;;;;;;;;5070939;28;20044;-48
2022/03/27 07:05:41;;;;;;;22.20;13.95;;;;;;;;;;5062572;28;20108;-48
2022/03/27 07:08:12;;;;;;;18.33;13.75;;;15.40;78.60;;;;;;5087194;28;20396;-48
2022/03/27 07:10:38;;;;;;;25.27;14.98;;;15.60;91.50;;;;;;5067777;28;20020;-48
2022/03/27 07:13:08;;;;;;;22.50;15.38;;;15.60;91.00;;;;;;5066739;28;20036;-48
2022/03/27 07:15:35;;;;;;;28.23;15.25;;;15.80;91.30;;;;;;5063228;28;20161;-49
2022/03/27 07:18:01;;;;;;;26.55;14.68;;;16.10;98.00;;;;;;5064500;28;20035;-48
2022/03/27 07:20:30;;;;;;;26.77;14.35;;;16.10;97.10;;;;;;5063069;28;20100;-49
2022/03/27 07:23:00;;;;;;;20.00;13.40;;;16.10;96.20;;;;;;5060783;28;20129;-49
2022/03/27 07:25:29;;;;;;;21.00;13.65;;;;;;;;;;5060907;28;20056;-49
2022/03/27 07:27:56;;;;;;;21.52;14.20;;;;;;;;;;5043525;28;20409;-49
2022/03/27 07:30:23;;;;;;;22.38;13.55;;;;;;;;;;5068859;28;20029;-47
2022/03/27 07:32:52;;;;;;;29.13;16.60;;;;;;;;;;5060937;28;20045;-45
2022/03/27 07:35:18;;;;;;;21.15;12.35;;;;;;;;;;5061927;28;20064;-46
2022/03/27 07:37:45;;;;;;;25.83;14.80;;;;;;;;;;5062163;28;20043;-46
2022/03/27 07:40:12;;;;;;;21.58;13.30;;;;;;;;;;5062020;28;20025;-46
2022/03/27 07:42:49;;;;;;;45.70;20.65;;;;;;;;;;5063763;28;20051;-51
2022/03/27 07:45:18;;;;;;;17.23;11.45;;;;;;;;;;5066343;28;20035;-50
2022/03/27 07:47:44;;;;;;;28.23;16.20;;;;;;;;;;5062979;28;20033;-50
2022/03/27 07:50:11;;;;;;;31.08;15.35;;;;;;;;;;5071302;28;20025;-49
2022/03/27 07:52:38;;;;;;;31.17;17.70;;;;;;;;;;5066636;28;20032;-51
2022/03/27 07:55:05;;;;;;;32.28;17.25;;;;;;;;;;5067896;28;20044;-50
2022/03/27 07:57:31;;;;;;;34.10;15.50;;;16.80;99.90;;;;;;5058590;28;20051;-50
2022/03/27 07:59:57;;;;;;;32.65;16.70;;;17.00;73.80;;;;;;5062109;28;20028;-50
2022/03/27 08:02:22;;;;;;;27.65;13.43;;;17.20;73.60;;;;;;5050034;28;20988;-49
2022/03/27 08:04:48;;;;;;;29.05;18.05;;;17.10;72.80;;;;;;5065061;28;20418;-49
2022/03/27 08:07:14;;;;;;;24.58;15.52;;;16.90;73.10;;;;;;5075808;28;20029;-49
2022/03/27 08:09:41;;;;;;;20.80;13.90;;;16.80;72.60;;;;;;5051305;28;20087;-49
2022/03/27 08:12:09;;;;;;;39.72;18.13;;;16.60;73.20;;;;;;5066524;28;20120;-51
2022/03/27 08:14:38;;;;;;;46.45;21.50;;;;;;;;;;5033647;28;20044;-50
2022/03/27 08:17:05;;;;;;;24.23;15.65;;;;;;;;;;5072300;28;20032;-49
2022/03/27 08:19:31;;;;;;;43.55;20.58;;;17.70;73.60;;;;;;5074917;28;20031;-49
2022/03/27 08:21:57;;;;;;;27.23;16.48;;;17.90;73.50;;;;;;5074437;28;20131;-50
2022/03/27 08:24:23;;;;;;;40.95;21.58;;;18.00;72.60;;;;;;5089506;28;20036;-49
2022/03/27 08:26:55;;;;;;;25.30;15.93;;;18.40;72.00;;;;;;5073437;28;20495;-49
2022/03/27 08:29:34;;;;;;;26.08;16.48;;;18.60;70.80;;;;;;5065053;28;20099;-50
2022/03/27 08:32:03;;;;;;;27.42;15.82;;;18.70;70.90;;;;;;5063751;28;20036;-49
2022/03/27 08:34:30;;;;;;;26.05;18.00;;;19.10;71.00;;;;;;5083789;28;20040;-49
2022/03/27 08:36:58;;;;;;;40.53;21.67;;;19.00;95.30;;;;;;5064836;28;20033;-50
2022/03/27 08:39:24;;;;;;;36.40;19.65;;;19.30;96.60;;;;;;5085807;28;20041;-51
2022/03/27 08:41:54;;;;;;;36.25;21.15;;;20.00;84.90;;;;;;5080669;28;20043;-50
2022/03/27 08:44:21;;;;;;;31.50;20.85;;;19.90;76.50;;;;;;5064112;28;20116;-48
2022/03/27 08:46:48;;;;;;;25.85;17.55;;;;;;;;;;5067037;28;20116;-47
2022/03/27 08:49:17;;;;;;;29.25;16.63;;;20.70;90.40;;;;;;5076276;28;20063;-47
2022/03/27 08:51:48;;;;;;;32.33;19.05;;;;;;;;;;5075766;28;20060;-47
2022/03/27 08:54:18;;;;;;;52.45;31.55;;;20.60;84.90;;;;;;5061115;28;20052;-49
2022/03/27 08:56:48;;;;;;;25.33;16.48;;;;;;;;;;5052627;28;20090;-47
2022/03/27 08:59:14;;;;;;;27.17;17.45;;;;;;;;;;5067883;28;20178;-47
2022/03/27 09:01:41;;;;;;;24.20;16.67;;;;;;;;;;5075910;28;20036;-47
2022/03/27 09:04:06;;;;;;;29.50;17.58;;;22.30;96.10;;;;;;5086246;28;20028;-47
2022/03/27 09:06:33;;;;;;;39.80;24.60;;;;;;;;;;5111124;28;20123;-47
2022/03/27 09:08:59;;;;;;;32.67;18.80;;;22.80;66.20;;;;;;5081563;28;20036;-49
2022/03/27 09:11:26;;;;;;;24.83;16.88;;;22.80;67.30;;;;;;5073107;28;20055;-49
2022/03/27 09:13:53;;;;;;;32.40;17.85;;;;;;;;;;5074918;28;20111;-49
2022/03/27 09:16:20;;;;;;;26.55;17.30;;;;;;;;;;5070828;28;20099;-49
2022/03/27 09:18:47;;;;;;;24.30;16.80;;;;;;;;;;5073319;28;20063;-48
2022/03/27 09:21:13;;;;;;;25.98;16.60;;;;;;;;;;5074052;28;20136;-47
2022/03/27 09:23:39;;;;;;;26.95;17.23;;;23.90;93.70;;;;;;5074017;28;20029;-47
2022/03/27 09:26:07;;;;;;;24.33;16.25;;;;;;;;;;5074903;28;20032;-47
2022/03/27 09:28:34;;;;;;;29.23;17.85;;;;;;;;;;5075201;28;20035;-47
2022/03/27 09:31:05;;;;;;;25.65;16.33;;;;;;;;;;5075656;28;20044;-47
2022/03/27 09:33:46;;;;;;;25.75;16.58;;;24.70;65.40;;;;;;5075245;28;20036;-47
2022/03/27 09:36:14;;;;;;;25.08;16.40;;;24.60;65.10;;;;;;5075095;28;20037;-47
2022/03/27 09:38:41;;;;;;;26.60;17.58;;;24.70;65.90;;;;;;5075097;28;20060;-48
2022/03/27 09:41:08;;;;;;;24.70;16.70;;;;;;;;;;5075251;28;20029;-47
2022/03/27 09:43:35;;;;;;;22.60;15.30;;;;;;;;;;5075473;28;20059;-49
2022/03/27 09:46:02;;;;;;;25.48;16.27;;;25.10;81.60;;;;;;5074834;28;20071;-49
2022/03/27 09:48:29;;;;;;;29.63;18.50;;;24.90;65.40;;;;;;5075392;28;20584;-49
2022/03/27 09:50:56;;;;;;;28.55;18.30;;;;;;;;;;5075188;28;20036;-49
2022/03/27 09:53:23;;;;;;;34.83;20.85;;;24.90;85.50;;;;;;5075617;28;20046;-48
2022/03/27 09:55:56;;;;;;;27.08;18.33;;;24.40;65.30;;;;;;5074780;28;20392;-49
2022/03/27 09:58:45;;;;;;;26.20;17.17;;;24.20;74.20;;;;;;5074646;28;20028;-49
2022/03/27 10:01:11;;;;;;;32.50;17.48;;;24.80;70.10;;;;;;5074935;28;20025;-48
2022/03/27 10:03:57;;;;;;;24.02;14.65;;;24.40;69.10;;;;;;5074602;28;20025;-47
2022/03/27 10:06:30;;;;;;;23.83;16.35;;;24.60;65.60;;;;;;5089629;28;20043;-47
2022/03/27 10:08:56;;;;;;;26.65;17.13;;;24.00;65.50;;;;;;5074470;28;20441;-49
2022/03/27 10:11:23;;;;;;;22.45;15.73;;;24.20;66.00;;;;;;5089819;28;20119;-49
2022/03/27 10:13:53;;;;;;;29.75;18.55;;;;;;;;;;5089612;28;20484;-49
2022/03/27 10:16:29;;;;;;;43.90;21.27;;;25.50;65.10;;;;;;5074421;28;20074;-49
2022/03/27 10:18:58;;;;;;;31.73;17.30;;;25.30;65.40;;;;;;5089625;28;20037;-50
2022/03/27 10:21:26;;;;;;;21.58;15.65;;;24.90;65.60;;;;;;5073861;28;20447;-50
2022/03/27 10:24:05;;;;;;;35.80;18.63;;;25.70;64.40;;;;;;5074160;28;20032;-50
2022/03/27 10:26:33;;;;;;;29.92;15.23;;;24.50;64.30;;;;;;5074113;28;20064;-50
2022/03/27 10:29:01;;;;;;;24.98;14.73;;;25.30;65.10;;;;;;5073118;28;20547;-50
2022/03/27 10:31:27;;;;;;;23.70;15.85;;;;;;;;;;5074511;28;20032;-49
2022/03/27 10:33:55;;;;;;;21.58;14.55;;;;;;;;;;5074053;28;20052;-50
2022/03/27 10:36:40;;;;;;;26.17;15.68;;;;;;;;;;5073863;28;20082;-50
2022/03/27 10:39:23;;;;;;;24.50;15.88;;;26.30;92.80;;;;;;5073829;28;20123;-49
2022/03/27 10:41:55;;;;;;;24.73;14.75;;;25.90;94.30;;;;;;5072800;28;20480;-49
2022/03/27 10:44:43;;;;;;;27.48;16.10;;;26.00;63.70;;;;;;5073807;28;20028;-49
2022/03/27 10:47:21;;;;;;;27.60;17.83;;;25.30;65.10;;;;;;5073646;28;20472;-48
2022/03/27 10:50:02;;;;;;;24.08;15.98;;;24.70;65.10;;;;;;5073526;28;20033;-48
2022/03/27 10:52:43;;;;;;;30.58;18.73;;;24.40;64.50;;;;;;5073784;28;20609;-47
2022/03/27 10:55:14;;;;;;;22.77;13.90;;;24.80;65.30;;;;;;5074090;28;20028;-47
2022/03/27 10:57:49;;;;;;;27.48;16.33;;;25.30;64.50;;;;;;5073997;28;20036;-50
2022/03/27 11:00:36;;;;;;;26.63;15.50;;;25.30;64.50;;;;;;5073044;28;20067;-50
2022/03/27 11:03:01;;;;;;;22.10;14.07;;;25.40;63.80;;;;;;5072469;28;20020;-48
2022/03/27 11:05:35;;;;;;;20.17;14.57;;;25.00;64.40;;;;;;5072687;28;20097;-48
2022/03/27 11:08:19;;;;;;;24.10;13.32;;;;;;;;;;5072869;28;20070;-48
2022/03/27 11:10:51;;;;;;;19.77;12.65;;;24.20;81.50;;;;;;5072274;28;20040;-47
2022/03/27 11:13:26;;;;;;;20.25;12.70;;;24.70;65.80;;;;;;5072197;28;20048;-47
2022/03/27 11:16:18;;;;;;;16.98;11.75;;;;;;;;;;5072343;28;20032;-48
2022/03/27 11:18:47;;;;;;;21.48;13.63;;;24.60;88.00;;;;;;5070359;28;20507;-47
2022/03/27 11:21:32;;;;;;;22.08;13.70;;;24.80;79.70;;;;;;5069536;28;20058;-48
2022/03/27 11:24:02;;;;;;;19.83;12.73;;;24.70;86.10;;;;;;5059516;28;20554;-49
2022/03/27 11:26:29;;;;;;;21.77;13.73;;;25.00;64.70;;;;;;5069836;28;20059;-48
2022/03/27 11:29:10;;;;;;;24.70;14.45;;;25.60;64.90;;;;;;5069800;28;20128;-48
2022/03/27 11:31:37;;;;;;;21.85;14.45;;;25.70;75.40;;;;;;5069734;28;20035;-48
2022/03/27 11:34:12;;;;;;;22.60;13.25;;;25.40;69.30;;;;;;5069778;28;20535;-49
2022/03/27 11:36:40;;;;;;;17.48;12.70;;;25.60;65.80;;;;;;5069685;28;20428;-48
2022/03/27 11:39:11;;;;;;;20.30;12.77;;;;;;;;;;5068436;28;20032;-48
2022/03/27 11:41:42;;;;;;;16.40;11.63;;;26.70;63.80;;;;;;5072941;28;20044;-48
2022/03/27 11:44:22;;;;;;;16.58;12.07;;;26.60;65.50;;;;;;5073859;28;20134;-48
2022/03/27 11:46:56;;;;;;;15.23;11.93;;;25.50;64.50;;;;;;5073784;28;20044;-48
2022/03/27 11:49:35;;;;;;;17.42;11.57;;;25.20;64.60;;;;;;5071910;28;20036;-48
2022/03/27 11:52:11;;;;;;;16.75;11.30;;;25.50;64.40;;;;;;5074601;28;20419;-49
2022/03/27 11:54:38;;;;;;;18.45;12.70;;;25.50;64.10;;;;;;5075920;28;20060;-48
2022/03/27 11:57:05;;;;;;;19.58;12.95;;;26.00;63.30;;;;;;5075800;28;20056;-47
2022/03/27 11:59:31;;;;;;;18.35;12.65;;;26.40;64.80;;;;;;5090582;28;20123;-48
2022/03/27 12:02:02;;;;;;;16.17;11.50;;;26.30;63.40;;;;;;5076033;28;20073;-49
2022/03/27 12:04:28;;;;;;;19.05;9.55;;;25.50;64.80;;;;;;5076052;28;20040;-49
2022/03/27 12:06:58;;;;;;;16.13;10.25;;;25.60;64.30;;;;;;5075884;28;20545;-48
2022/03/27 12:09:29;;;;;;;14.63;8.27;;;25.40;64.30;;;;;;5076008;28;20032;-47
2022/03/27 12:12:12;;;;;;;12.50;9.38;;;25.20;70.50;;;;;;5075632;28;20110;-49
2022/03/27 12:14:58;;;;;;;12.70;7.85;;;25.00;67.30;;;;;;5090496;28;20428;-48
2022/03/27 12:17:25;;;;;;;16.83;9.68;;;24.70;66.30;;;;;;5075429;28;20064;-48
2022/03/27 12:20:08;;;;;;;15.23;9.70;;;25.00;66.30;;;;;;5090377;28;20487;-48
2022/03/27 12:22:45;;;;;;;14.35;8.80;;;25.30;66.00;;;;;;5076522;28;20078;-48
2022/03/27 12:25:25;;;;;;;12.05;6.82;;;26.10;65.10;;;;;;5076529;28;20033;-48
2022/03/27 12:30:50;;;;;;;12.00;7.22;;;25.70;67.60;;;;;;5076799;28;20478;-48
2022/03/27 12:33:20;;;;;;;17.52;8.38;;;25.10;64.70;;;;;;5076422;28;20032;-49
2022/03/27 12:36:01;;;;;;;10.57;7.15;;;25.00;65.50;;;;;;5076361;28;20036;-47
2022/03/27 12:38:34;;;;;;;13.43;7.50;;;24.80;66.30;;;;;;5076491;28;20032;-48
2022/03/27 12:41:02;;;;;;;17.73;7.97;;;24.80;65.60;;;;;;5076677;28;20032;-48
2022/03/27 12:43:29;;;;;;;12.43;7.80;;;25.00;66.70;;;;;;5076387;28;20036;-48
2022/03/27 12:45:55;;;;;;;12.88;7.72;;;25.20;65.10;;;;;;5075979;28;20051;-48
2022/03/27 12:48:27;;;;;;;10.20;6.70;;;25.60;65.40;;;;;;5091316;28;20049;-50
2022/03/27 12:50:54;;;;;;;9.57;6.65;;;25.00;65.80;;;;;;5076142;28;20033;-50
2022/03/27 12:53:23;;;;;;;15.73;6.90;;;25.40;66.10;;;;;;5074839;28;20037;-48
2022/03/27 12:55:55;;;;;;;13.23;5.90;;;26.00;65.90;;;;;;5076075;28;20400;-47
2022/03/27 12:58:35;;;;;;;18.95;6.95;;;25.80;66.40;;;;;;5076031;28;20081;-48